sensor_id;sensor_type;location;lat;lon;timestamp;pressure;altitude;pressure_sealevel;temperature;humidity
60089;BME280;45961;53.574;55.878;2022-09-28T00:00:37;100436.75;;;3.18;81.22
60089;BME280;45961;53.574;55.878;2022-09-28T00:01:59;100410.16;;;3.14;81.36
60089;BME280;45961;53.574;55.878;2022-09-28T00:03:18;100417.19;;;3.20;81.29
60089;BME280;45961;53.574;55.878;2022-09-28T00:04:38;100421.63;;;3.24;81.49
60089;BME280;45961;53.574;55.878;2022-09-28T00:06:02;100425.84;;;3.22;81.36
60089;BME280;45961;53.574;55.878;2022-09-28T00:07:23;100426.63;;;3.21;81.40
60089;BME280;45961;53.574;55.878;2022-09-28T00:08:42;100433.94;;;3.33;81.29
60089;BME280;45961;53.574;55.878;2022-09-28T00:10:01;100415.16;;;3.11;81.33
60089;BME280;45961;53.574;55.878;2022-09-28T00:11:22;100419.22;;;3.27;81.24
60089;BME280;45961;53.574;55.878;2022-09-28T00:12:42;100440.19;;;3.39;80.94
60089;BME280;45961;53.574;55.878;2022-09-28T00:14:02;100439.50;;;3.43;80.94
60089;BME280;45961;53.574;55.878;2022-09-28T00:15:21;100444.63;;;3.43;80.70
60089;BME280;45961;53.574;55.878;2022-09-28T00:16:43;100413.22;;;3.27;80.68
60089;BME280;45961;53.574;55.878;2022-09-28T00:18:02;100449.56;;;2.99;80.96
60089;BME280;45961;53.574;55.878;2022-09-28T00:19:22;100422.34;;;3.01;81.31
60089;BME280;45961;53.574;55.878;2022-09-28T00:20:41;100444.34;;;3.16;81.20
60089;BME280;45961;53.574;55.878;2022-09-28T00:22:01;100421.25;;;3.15;81.25
60089;BME280;45961;53.574;55.878;2022-09-28T00:23:20;100436.69;;;3.37;80.90
60089;BME280;45961;53.574;55.878;2022-09-28T00:24:40;100435.94;;;3.40;80.54
60089;BME280;45961;53.574;55.878;2022-09-28T00:26:01;100427.50;;;3.21;80.50
60089;BME280;45961;53.574;55.878;2022-09-28T00:27:21;100435.28;;;3.25;80.67
60089;BME280;45961;53.574;55.878;2022-09-28T00:28:41;100438.03;;;3.29;80.75
60089;BME280;45961;53.574;55.878;2022-09-28T00:30:00;100419.13;;;3.26;80.79
60089;BME280;45961;53.574;55.878;2022-09-28T00:31:20;100428.44;;;3.24;80.72
60089;BME280;45961;53.574;55.878;2022-09-28T00:32:40;100426.69;;;3.22;80.70
60089;BME280;45961;53.574;55.878;2022-09-28T00:34:02;100431.38;;;3.33;80.59
60089;BME280;45961;53.574;55.878;2022-09-28T00:35:23;100436.69;;;3.37;80.63
60089;BME280;45961;53.574;55.878;2022-09-28T00:36:44;100431.50;;;3.36;80.18
60089;BME280;45961;53.574;55.878;2022-09-28T00:38:05;100422.59;;;3.26;80.07
60089;BME280;45961;53.574;55.878;2022-09-28T00:39:27;100440.91;;;3.37;80.10
60089;BME280;45961;53.574;55.878;2022-09-28T00:40:49;100439.19;;;3.36;79.95
60089;BME280;45961;53.574;55.878;2022-09-28T00:42:22;100436.34;;;3.09;79.88
60089;BME280;45961;53.574;55.878;2022-09-28T00:43:42;100428.25;;;3.19;80.00
60089;BME280;45961;53.574;55.878;2022-09-28T00:45:01;100431.50;;;3.15;79.93
60089;BME280;45961;53.574;55.878;2022-09-28T00:46:32;100432.19;;;3.11;79.86
60089;BME280;45961;53.574;55.878;2022-09-28T00:47:57;100437.47;;;3.15;80.20
60089;BME280;45961;53.574;55.878;2022-09-28T00:49:20;100410.38;;;3.00;80.46
60089;BME280;45961;53.574;55.878;2022-09-28T00:50:42;100435.31;;;3.05;80.29
60089;BME280;45961;53.574;55.878;2022-09-28T00:52:05;100434.28;;;3.21;80.37
60089;BME280;45961;53.574;55.878;2022-09-28T00:53:30;100436.59;;;3.15;80.45
60089;BME280;45961;53.574;55.878;2022-09-28T00:54:51;100434.47;;;3.05;80.42
60089;BME280;45961;53.574;55.878;2022-09-28T00:56:15;100444.78;;;3.06;80.59
60089;BME280;45961;53.574;55.878;2022-09-28T00:57:39;100434.78;;;3.12;80.50
60089;BME280;45961;53.574;55.878;2022-09-28T00:59:00;100442.94;;;3.04;80.75
60089;BME280;45961;53.574;55.878;2022-09-28T01:00:23;100451.69;;;2.89;80.99
60089;BME280;45961;53.574;55.878;2022-09-28T01:01:42;100437.00;;;3.05;81.21
60089;BME280;45961;53.574;55.878;2022-09-28T01:03:02;100444.19;;;3.13;81.33
60089;BME280;45961;53.574;55.878;2022-09-28T01:04:22;100450.66;;;3.25;80.86
60089;BME280;45961;53.574;55.878;2022-09-28T01:05:43;100445.84;;;3.11;80.58
60089;BME280;45961;53.574;55.878;2022-09-28T01:07:04;100445.88;;;3.13;80.76
60089;BME280;45961;53.574;55.878;2022-09-28T01:08:25;100432.84;;;3.07;80.92
60089;BME280;45961;53.574;55.878;2022-09-28T01:09:47;100452.09;;;3.18;80.72
60089;BME280;45961;53.574;55.878;2022-09-28T01:11:06;100446.47;;;3.27;80.64
60089;BME280;45961;53.574;55.878;2022-09-28T01:12:25;100453.31;;;3.07;80.60
60089;BME280;45961;53.574;55.878;2022-09-28T01:13:45;100465.34;;;3.09;80.89
60089;BME280;45961;53.574;55.878;2022-09-28T01:15:07;100431.38;;;2.92;80.88
60089;BME280;45961;53.574;55.878;2022-09-28T01:23:41;100446.38;;;3.04;81.25
60089;BME280;45961;53.574;55.878;2022-09-28T01:25:27;100444.09;;;3.10;81.13
60089;BME280;45961;53.574;55.878;2022-09-28T01:27:06;100445.38;;;3.01;81.28
60089;BME280;45961;53.574;55.878;2022-09-28T01:28:29;100443.47;;;3.16;81.16
60089;BME280;45961;53.574;55.878;2022-09-28T01:30:06;100427.41;;;2.99;81.07
60089;BME280;45961;53.574;55.878;2022-09-28T01:31:30;100436.41;;;3.10;80.99
60089;BME280;45961;53.574;55.878;2022-09-28T01:33:02;100429.66;;;3.12;80.81
60089;BME280;45961;53.574;55.878;2022-09-28T01:34:28;100418.19;;;3.03;80.71
60089;BME280;45961;53.574;55.878;2022-09-28T01:35:50;100439.91;;;2.93;80.99
60089;BME280;45961;53.574;55.878;2022-09-28T01:37:17;100436.09;;;2.83;81.74
60089;BME280;45961;53.574;55.878;2022-09-28T01:38:47;100412.56;;;2.71;82.19
60089;BME280;45961;53.574;55.878;2022-09-28T01:40:08;100427.91;;;2.71;82.56
60089;BME280;45961;53.574;55.878;2022-09-28T01:41:30;100412.84;;;2.58;82.82
60089;BME280;45961;53.574;55.878;2022-09-28T01:43:01;100444.25;;;2.75;83.09
60089;BME280;45961;53.574;55.878;2022-09-28T01:44:23;100445.84;;;2.72;83.42
60089;BME280;45961;53.574;55.878;2022-09-28T01:45:58;100440.81;;;2.74;83.35
60089;BME280;45961;53.574;55.878;2022-09-28T01:47:22;100442.16;;;2.66;83.06
60089;BME280;45961;53.574;55.878;2022-09-28T01:48:53;100457.69;;;2.51;83.38
60089;BME280;45961;53.574;55.878;2022-09-28T01:50:20;100442.94;;;2.65;83.67
60089;BME280;45961;53.574;55.878;2022-09-28T01:51:54;100439.47;;;2.82;83.79
60089;BME280;45961;53.574;55.878;2022-09-28T01:53:25;100441.22;;;2.83;83.82
60089;BME280;45961;53.574;55.878;2022-09-28T01:54:57;100447.25;;;2.85;83.85
60089;BME280;45961;53.574;55.878;2022-09-28T01:56:26;100438.19;;;2.92;83.73
60089;BME280;45961;53.574;55.878;2022-09-28T01:57:51;100441.06;;;3.00;83.75
60089;BME280;45961;53.574;55.878;2022-09-28T01:59:17;100450.44;;;2.99;83.84
60089;BME280;45961;53.574;55.878;2022-09-28T02:00:41;100452.06;;;2.78;83.86
60089;BME280;45961;53.574;55.878;2022-09-28T02:02:08;100455.63;;;2.62;84.46
60089;BME280;45961;53.574;55.878;2022-09-28T02:03:37;100457.94;;;2.57;84.67
60089;BME280;45961;53.574;55.878;2022-09-28T02:05:07;100470.97;;;2.44;85.29
60089;BME280;45961;53.574;55.878;2022-09-28T02:06:42;100486.03;;;2.38;85.47
60089;BME280;45961;53.574;55.878;2022-09-28T02:08:16;100448.84;;;2.44;85.79
60089;BME280;45961;53.574;55.878;2022-09-28T02:09:44;100458.06;;;2.41;85.96
60089;BME280;45961;53.574;55.878;2022-09-28T02:11:16;100451.88;;;2.36;86.18
60089;BME280;45961;53.574;55.878;2022-09-28T02:12:41;100459.63;;;2.37;86.57
60089;BME280;45961;53.574;55.878;2022-09-28T02:14:05;100463.84;;;2.37;86.66
60089;BME280;45961;53.574;55.878;2022-09-28T02:15:34;100440.03;;;2.18;86.86
60089;BME280;45961;53.574;55.878;2022-09-28T02:16:56;100432.56;;;2.23;86.77
60089;BME280;45961;53.574;55.878;2022-09-28T02:18:19;100466.41;;;2.56;86.57
60089;BME280;45961;53.574;55.878;2022-09-28T02:19:38;100465.69;;;2.59;85.86
60089;BME280;45961;53.574;55.878;2022-09-28T02:21:22;100475.28;;;2.45;85.39
60089;BME280;45961;53.574;55.878;2022-09-28T02:22:49;100470.66;;;2.18;84.95
60089;BME280;45961;53.574;55.878;2022-09-28T02:24:23;100467.88;;;2.32;84.47
60089;BME280;45961;53.574;55.878;2022-09-28T02:25:49;100444.97;;;2.33;83.79
60089;BME280;45961;53.574;55.878;2022-09-28T02:27:23;100470.81;;;2.59;83.18
60089;BME280;45961;53.574;55.878;2022-09-28T02:28:44;100462.28;;;2.40;82.59
60089;BME280;45961;53.574;55.878;2022-09-28T02:30:04;100470.50;;;2.53;82.16
60089;BME280;45961;53.574;55.878;2022-09-28T02:31:25;100467.28;;;2.37;81.81
60089;BME280;45961;53.574;55.878;2022-09-28T02:32:47;100474.75;;;2.52;81.73
60089;BME280;45961;53.574;55.878;2022-09-28T02:34:09;100458.41;;;2.48;81.57
60089;BME280;45961;53.574;55.878;2022-09-28T02:35:28;100470.47;;;2.51;81.45
60089;BME280;45961;53.574;55.878;2022-09-28T02:36:49;100481.03;;;2.59;81.19
60089;BME280;45961;53.574;55.878;2022-09-28T02:38:11;100478.63;;;2.62;81.16
60089;BME280;45961;53.574;55.878;2022-09-28T02:39:31;100475.19;;;2.61;80.86
60089;BME280;45961;53.574;55.878;2022-09-28T02:42:29;100479.75;;;2.68;80.42
60089;BME280;45961;53.574;55.878;2022-09-28T02:51:29;100453.94;;;2.62;80.19
60089;BME280;45961;53.574;55.878;2022-09-28T02:57:58;100467.84;;;2.69;79.97
60089;BME280;45961;53.574;55.878;2022-09-28T03:01:06;100476.19;;;2.45;80.31
60089;BME280;45961;53.574;55.878;2022-09-28T03:03:16;100475.72;;;2.36;80.50
60089;BME280;45961;53.574;55.878;2022-09-28T03:04:38;100483.84;;;2.45;80.94
60089;BME280;45961;53.574;55.878;2022-09-28T03:06:26;100475.78;;;2.56;81.00
60089;BME280;45961;53.574;55.878;2022-09-28T03:07:52;100488.09;;;2.64;80.65
60089;BME280;45961;53.574;55.878;2022-09-28T03:09:28;100474.59;;;2.49;80.72
60089;BME280;45961;53.574;55.878;2022-09-28T03:11:01;100484.66;;;2.64;80.87
60089;BME280;45961;53.574;55.878;2022-09-28T03:12:23;100461.78;;;2.47;80.72
60089;BME280;45961;53.574;55.878;2022-09-28T03:13:44;100484.06;;;2.69;80.79
60089;BME280;45961;53.574;55.878;2022-09-28T03:16:42;100434.81;;;2.54;80.57
60089;BME280;45961;53.574;55.878;2022-09-28T03:18:02;100478.34;;;2.75;80.47
60089;BME280;45961;53.574;55.878;2022-09-28T03:19:27;100484.47;;;2.79;80.26
60089;BME280;45961;53.574;55.878;2022-09-28T03:20:48;100482.50;;;2.92;80.08
60089;BME280;45961;53.574;55.878;2022-09-28T03:22:09;100474.78;;;2.91;79.97
60089;BME280;45961;53.574;55.878;2022-09-28T03:23:28;100478.06;;;2.88;80.10
60089;BME280;45961;53.574;55.878;2022-09-28T03:24:48;100463.56;;;2.87;79.88
60089;BME280;45961;53.574;55.878;2022-09-28T03:26:09;100484.94;;;3.09;79.78
60089;BME280;45961;53.574;55.878;2022-09-28T03:27:29;100488.59;;;3.14;79.38
60089;BME280;45961;53.574;55.878;2022-09-28T03:28:49;100491.34;;;3.18;79.02
60089;BME280;45961;53.574;55.878;2022-09-28T03:30:14;100490.56;;;3.21;79.01
60089;BME280;45961;53.574;55.878;2022-09-28T03:31:36;100486.41;;;3.04;78.63
60089;BME280;45961;53.574;55.878;2022-09-28T03:32:59;100487.81;;;3.16;78.42
60089;BME280;45961;53.574;55.878;2022-09-28T03:34:21;100488.50;;;3.12;78.02
60089;BME280;45961;53.574;55.878;2022-09-28T03:35:41;100488.00;;;3.21;77.81
60089;BME280;45961;53.574;55.878;2022-09-28T03:37:00;100494.31;;;3.29;77.78
60089;BME280;45961;53.574;55.878;2022-09-28T03:38:20;100482.94;;;3.02;77.78
60089;BME280;45961;53.574;55.878;2022-09-28T03:39:40;100492.75;;;2.92;77.90
60089;BME280;45961;53.574;55.878;2022-09-28T03:40:59;100480.81;;;2.93;78.33
60089;BME280;45961;53.574;55.878;2022-09-28T03:42:22;100483.72;;;3.01;78.51
60089;BME280;45961;53.574;55.878;2022-09-28T03:43:43;100483.47;;;3.14;78.08
60089;BME280;45961;53.574;55.878;2022-09-28T03:45:06;100486.06;;;3.15;78.02
60089;BME280;45961;53.574;55.878;2022-09-28T03:46:26;100490.38;;;2.97;78.30
60089;BME280;45961;53.574;55.878;2022-09-28T03:47:49;100494.38;;;2.90;78.60
60089;BME280;45961;53.574;55.878;2022-09-28T03:49:10;100491.88;;;2.92;78.36
60089;BME280;45961;53.574;55.878;2022-09-28T03:50:30;100478.81;;;3.05;78.14
60089;BME280;45961;53.574;55.878;2022-09-28T03:51:49;100481.97;;;3.00;77.65
60089;BME280;45961;53.574;55.878;2022-09-28T03:53:09;100483.03;;;3.05;77.80
60089;BME280;45961;53.574;55.878;2022-09-28T03:54:28;100487.09;;;3.19;77.66
60089;BME280;45961;53.574;55.878;2022-09-28T03:55:49;100483.88;;;3.04;77.46
60089;BME280;45961;53.574;55.878;2022-09-28T03:57:09;100480.28;;;3.00;77.48
60089;BME280;45961;53.574;55.878;2022-09-28T03:58:30;100471.88;;;3.22;77.10
60089;BME280;45961;53.574;55.878;2022-09-28T03:59:50;100478.50;;;3.38;76.90
60089;BME280;45961;53.574;55.878;2022-09-28T04:01:13;100473.06;;;3.30;76.55
60089;BME280;45961;53.574;55.878;2022-09-28T04:02:34;100472.13;;;3.49;76.80
60089;BME280;45961;53.574;55.878;2022-09-28T04:04:14;100480.91;;;3.75;76.20
60089;BME280;45961;53.574;55.878;2022-09-28T04:05:33;100465.75;;;3.81;75.39
60089;BME280;45961;53.574;55.878;2022-09-28T04:06:53;100470.47;;;3.70;74.81
60089;BME280;45961;53.574;55.878;2022-09-28T04:08:12;100470.28;;;3.87;74.84
60089;BME280;45961;53.574;55.878;2022-09-28T04:09:32;100455.25;;;3.96;74.85
60089;BME280;45961;53.574;55.878;2022-09-28T04:10:55;100466.50;;;4.22;73.91
60089;BME280;45961;53.574;55.878;2022-09-28T04:12:15;100470.31;;;4.32;73.59
60089;BME280;45961;53.574;55.878;2022-09-28T04:13:34;100460.22;;;4.36;72.96
60089;BME280;45961;53.574;55.878;2022-09-28T04:14:55;100458.66;;;4.40;72.62
60089;BME280;45961;53.574;55.878;2022-09-28T04:16:15;100459.66;;;4.43;72.31
60089;BME280;45961;53.574;55.878;2022-09-28T04:17:42;100441.84;;;4.24;71.86
60089;BME280;45961;53.574;55.878;2022-09-28T04:19:14;100459.25;;;4.55;71.95
60089;BME280;45961;53.574;55.878;2022-09-28T04:20:42;100467.03;;;4.82;71.52
60089;BME280;45961;53.574;55.878;2022-09-28T04:22:05;100462.59;;;4.54;71.09
60089;BME280;45961;53.574;55.878;2022-09-28T04:23:26;100473.59;;;4.74;70.90
60089;BME280;45961;53.574;55.878;2022-09-28T04:24:46;100466.78;;;4.75;70.39
60089;BME280;45961;53.574;55.878;2022-09-28T04:26:10;100465.81;;;4.95;70.17
60089;BME280;45961;53.574;55.878;2022-09-28T04:27:33;100463.94;;;5.15;69.61
60089;BME280;45961;53.574;55.878;2022-09-28T04:29:11;100465.38;;;5.07;69.15
60089;BME280;45961;53.574;55.878;2022-09-28T04:30:37;100453.75;;;4.46;69.92
60089;BME280;45961;53.574;55.878;2022-09-28T04:31:56;100460.25;;;4.83;70.34
60089;BME280;45961;53.574;55.878;2022-09-28T04:33:26;100464.28;;;5.00;69.80
60089;BME280;45961;53.574;55.878;2022-09-28T04:34:45;100456.00;;;4.83;69.38
60089;BME280;45961;53.574;55.878;2022-09-28T04:36:05;100458.91;;;4.70;69.67
60089;BME280;45961;53.574;55.878;2022-09-28T04:37:24;100461.13;;;4.83;69.87
60089;BME280;45961;53.574;55.878;2022-09-28T04:38:43;100457.97;;;4.90;69.37
60089;BME280;45961;53.574;55.878;2022-09-28T04:40:03;100459.41;;;4.60;70.15
60089;BME280;45961;53.574;55.878;2022-09-28T04:41:23;100452.66;;;4.39;71.16
60089;BME280;45961;53.574;55.878;2022-09-28T04:42:43;100448.44;;;4.64;71.43
60089;BME280;45961;53.574;55.878;2022-09-28T04:44:03;100457.41;;;4.75;70.67
60089;BME280;45961;53.574;55.878;2022-09-28T04:45:23;100459.00;;;4.95;70.46
60089;BME280;45961;53.574;55.878;2022-09-28T04:46:50;100462.59;;;5.01;69.87
60089;BME280;45961;53.574;55.878;2022-09-28T04:48:25;100463.41;;;5.00;69.64
60089;BME280;45961;53.574;55.878;2022-09-28T04:50:04;100466.56;;;4.92;69.75
60089;BME280;45961;53.574;55.878;2022-09-28T04:51:08;100462.38;;;4.94;69.31
60089;BME280;45961;53.574;55.878;2022-09-28T04:52:10;100467.13;;;5.08;69.37
60089;BME280;45961;53.574;55.878;2022-09-28T04:53:12;100469.53;;;4.57;69.34
60089;BME280;45961;53.574;55.878;2022-09-28T04:54:13;100470.66;;;4.63;70.20
60089;BME280;45961;53.574;55.878;2022-09-28T04:55:16;100469.97;;;4.91;70.12
60089;BME280;45961;53.574;55.878;2022-09-28T04:56:37;100463.19;;;4.93;69.69
60089;BME280;45961;53.574;55.878;2022-09-28T04:57:38;100460.13;;;4.56;69.92
60089;BME280;45961;53.574;55.878;2022-09-28T04:58:39;100455.44;;;4.68;70.14
60089;BME280;45961;53.574;55.878;2022-09-28T04:59:40;100454.72;;;4.72;69.86
60089;BME280;45961;53.574;55.878;2022-09-28T05:00:41;100456.53;;;4.75;69.32
60089;BME280;45961;53.574;55.878;2022-09-28T05:02:05;100462.19;;;4.90;69.10
60089;BME280;45961;53.574;55.878;2022-09-28T05:03:25;100464.81;;;5.15;68.59
60089;BME280;45961;53.574;55.878;2022-09-28T05:04:49;100471.91;;;5.23;68.02
60089;BME280;45961;53.574;55.878;2022-09-28T05:06:12;100468.91;;;5.10;67.08
60089;BME280;45961;53.574;55.878;2022-09-28T05:07:16;100471.22;;;5.03;66.72
60089;BME280;45961;53.574;55.878;2022-09-28T05:08:17;100471.25;;;5.04;66.86
60089;BME280;45961;53.574;55.878;2022-09-28T05:09:18;100468.75;;;5.06;67.26
60089;BME280;45961;53.574;55.878;2022-09-28T05:10:21;100461.19;;;5.10;67.18
60089;BME280;45961;53.574;55.878;2022-09-28T05:11:23;100473.50;;;5.19;67.86
60089;BME280;45961;53.574;55.878;2022-09-28T05:12:24;100474.75;;;5.06;67.79
60089;BME280;45961;53.574;55.878;2022-09-28T05:13:26;100477.66;;;4.91;67.17
60089;BME280;45961;53.574;55.878;2022-09-28T05:14:27;100471.41;;;4.85;66.90
60089;BME280;45961;53.574;55.878;2022-09-28T05:15:28;100465.59;;;4.89;66.89
60089;BME280;45961;53.574;55.878;2022-09-28T05:16:30;100469.69;;;5.08;66.95
60089;BME280;45961;53.574;55.878;2022-09-28T05:18:05;100475.88;;;5.14;67.03
60089;BME280;45961;53.574;55.878;2022-09-28T05:19:21;100457.25;;;4.94;67.21
60089;BME280;45961;53.574;55.878;2022-09-28T05:20:42;100470.16;;;4.98;67.49
60089;BME280;45961;53.574;55.878;2022-09-28T05:21:45;100473.31;;;5.14;67.45
60089;BME280;45961;53.574;55.878;2022-09-28T05:22:48;100467.97;;;5.32;67.19
60089;BME280;45961;53.574;55.878;2022-09-28T05:23:49;100466.78;;;5.48;66.91
60089;BME280;45961;53.574;55.878;2022-09-28T05:24:50;100460.66;;;5.44;66.70
60089;BME280;45961;53.574;55.878;2022-09-28T05:25:52;100453.22;;;5.52;66.56
60089;BME280;45961;53.574;55.878;2022-09-28T05:26:59;100461.19;;;5.60;66.48
60089;BME280;45961;53.574;55.878;2022-09-28T05:28:00;100453.38;;;5.31;66.70
60089;BME280;45961;53.574;55.878;2022-09-28T05:29:11;100466.31;;;5.34;66.51
60089;BME280;45961;53.574;55.878;2022-09-28T05:30:24;100442.88;;;5.51;66.42
60089;BME280;45961;53.574;55.878;2022-09-28T05:31:45;100459.19;;;5.78;65.83
60089;BME280;45961;53.574;55.878;2022-09-28T05:32:52;100461.91;;;5.83;64.98
60089;BME280;45961;53.574;55.878;2022-09-28T05:34:04;100454.38;;;5.87;64.91
60089;BME280;45961;53.574;55.878;2022-09-28T05:35:05;100457.97;;;5.92;64.89
60089;BME280;45961;53.574;55.878;2022-09-28T05:36:14;100447.28;;;5.80;64.83
60089;BME280;45961;53.574;55.878;2022-09-28T05:37:16;100464.72;;;5.90;64.73
60089;BME280;45961;53.574;55.878;2022-09-28T05:38:19;100458.81;;;5.66;65.05
60089;BME280;45961;53.574;55.878;2022-09-28T05:39:20;100459.00;;;5.72;65.35
60089;BME280;45961;53.574;55.878;2022-09-28T05:40:21;100459.13;;;6.02;65.47
60089;BME280;45961;53.574;55.878;2022-09-28T05:41:22;100463.28;;;5.99;64.32
60089;BME280;45961;53.574;55.878;2022-09-28T05:42:23;100462.59;;;5.77;63.92
60089;BME280;45961;53.574;55.878;2022-09-28T05:43:24;100456.09;;;5.88;64.31
60089;BME280;45961;53.574;55.878;2022-09-28T05:44:25;100452.34;;;5.79;64.50
60089;BME280;45961;53.574;55.878;2022-09-28T05:45:28;100453.78;;;5.69;64.55
60089;BME280;45961;53.574;55.878;2022-09-28T05:46:29;100450.59;;;5.76;64.80
60089;BME280;45961;53.574;55.878;2022-09-28T05:47:37;100435.06;;;5.73;64.19
60089;BME280;45961;53.574;55.878;2022-09-28T05:48:39;100456.81;;;5.57;64.08
60089;BME280;45961;53.574;55.878;2022-09-28T05:49:41;100454.28;;;5.84;64.20
60089;BME280;45961;53.574;55.878;2022-09-28T05:50:42;100448.84;;;5.75;63.70
60089;BME280;45961;53.574;55.878;2022-09-28T05:51:43;100443.47;;;5.94;64.03
60089;BME280;45961;53.574;55.878;2022-09-28T05:52:44;100444.97;;;6.15;63.73
60089;BME280;45961;53.574;55.878;2022-09-28T05:53:48;100445.06;;;5.91;63.35
60089;BME280;45961;53.574;55.878;2022-09-28T05:54:50;100441.56;;;5.89;62.61
60089;BME280;45961;53.574;55.878;2022-09-28T05:55:52;100443.84;;;6.07;62.44
60089;BME280;45961;53.574;55.878;2022-09-28T05:56:52;100425.78;;;6.04;62.88
60089;BME280;45961;53.574;55.878;2022-09-28T05:58:00;100427.41;;;6.29;62.99
60089;BME280;45961;53.574;55.878;2022-09-28T05:59:01;100434.59;;;6.12;62.31
60089;BME280;45961;53.574;55.878;2022-09-28T06:00:05;100428.28;;;6.31;62.71
60089;BME280;45961;53.574;55.878;2022-09-28T06:01:19;100441.84;;;5.97;62.56
60089;BME280;45961;53.574;55.878;2022-09-28T06:02:20;100436.38;;;5.87;62.82
60089;BME280;45961;53.574;55.878;2022-09-28T06:03:22;100440.13;;;5.97;63.27
60089;BME280;45961;53.574;55.878;2022-09-28T06:04:23;100438.06;;;5.87;63.60
60089;BME280;45961;53.574;55.878;2022-09-28T06:05:26;100434.72;;;5.89;64.13
60089;BME280;45961;53.574;55.878;2022-09-28T06:06:27;100440.91;;;5.94;63.61
60089;BME280;45961;53.574;55.878;2022-09-28T06:07:28;100450.91;;;6.12;63.49
60089;BME280;45961;53.574;55.878;2022-09-28T06:08:29;100444.16;;;6.45;63.38
60089;BME280;45961;53.574;55.878;2022-09-28T06:09:42;100448.44;;;6.46;63.17
60089;BME280;45961;53.574;55.878;2022-09-28T06:10:51;100438.38;;;6.53;62.96
60089;BME280;45961;53.574;55.878;2022-09-28T06:11:52;100441.56;;;6.75;62.69
60089;BME280;45961;53.574;55.878;2022-09-28T06:13:03;100432.53;;;6.89;62.44
60089;BME280;45961;53.574;55.878;2022-09-28T06:14:04;100436.88;;;6.60;61.80
60089;BME280;45961;53.574;55.878;2022-09-28T06:15:06;100442.25;;;6.67;61.83
60089;BME280;45961;53.574;55.878;2022-09-28T06:16:08;100447.19;;;6.61;62.11
60089;BME280;45961;53.574;55.878;2022-09-28T06:17:14;100444.84;;;6.69;61.97
60089;BME280;45961;53.574;55.878;2022-09-28T06:18:18;100441.19;;;6.61;61.92
60089;BME280;45961;53.574;55.878;2022-09-28T06:19:37;100446.22;;;6.58;61.96
60089;BME280;45961;53.574;55.878;2022-09-28T06:21:02;100441.44;;;6.40;62.20
60089;BME280;45961;53.574;55.878;2022-09-28T06:22:12;100437.44;;;6.50;63.10
60089;BME280;45961;53.574;55.878;2022-09-28T06:23:39;100440.97;;;6.25;62.93
60089;BME280;45961;53.574;55.878;2022-09-28T06:24:41;100443.56;;;6.25;63.09
60089;BME280;45961;53.574;55.878;2022-09-28T06:25:42;100433.59;;;6.35;63.15
60089;BME280;45961;53.574;55.878;2022-09-28T06:26:44;100440.78;;;6.47;62.43
60089;BME280;45961;53.574;55.878;2022-09-28T06:28:27;100437.56;;;6.26;63.53
60089;BME280;45961;53.574;55.878;2022-09-28T06:29:22;100438.31;;;6.22;63.84
60089;BME280;45961;53.574;55.878;2022-09-28T06:30:23;100429.19;;;6.31;64.18
60089;BME280;45961;53.574;55.878;2022-09-28T06:31:28;100430.81;;;6.58;63.90
60089;BME280;45961;53.574;55.878;2022-09-28T06:32:30;100431.59;;;6.55;63.60
60089;BME280;45961;53.574;55.878;2022-09-28T06:33:31;100433.50;;;6.32;63.44
60089;BME280;45961;53.574;55.878;2022-09-28T06:34:52;100428.25;;;6.29;63.60
60089;BME280;45961;53.574;55.878;2022-09-28T06:35:53;100440.75;;;6.17;63.71
60089;BME280;45961;53.574;55.878;2022-09-28T06:36:54;100422.72;;;6.44;63.93
60089;BME280;45961;53.574;55.878;2022-09-28T06:37:59;100424.53;;;6.48;63.52
60089;BME280;45961;53.574;55.878;2022-09-28T06:39:01;100420.41;;;6.55;63.13
60089;BME280;45961;53.574;55.878;2022-09-28T06:40:02;100431.50;;;6.52;63.27
60089;BME280;45961;53.574;55.878;2022-09-28T06:41:04;100419.66;;;6.57;63.33
60089;BME280;45961;53.574;55.878;2022-09-28T06:42:06;100425.50;;;6.83;63.65
60089;BME280;45961;53.574;55.878;2022-09-28T06:43:27;100418.59;;;7.14;63.21
60089;BME280;45961;53.574;55.878;2022-09-28T06:44:48;100415.25;;;7.16;62.31
60089;BME280;45961;53.574;55.878;2022-09-28T06:46:11;100409.94;;;7.10;62.01
60089;BME280;45961;53.574;55.878;2022-09-28T06:47:32;100410.28;;;6.91;62.16
60089;BME280;45961;53.574;55.878;2022-09-28T06:48:53;100413.75;;;6.61;62.63
60089;BME280;45961;53.574;55.878;2022-09-28T06:50:14;100409.81;;;6.74;63.20
60089;BME280;45961;53.574;55.878;2022-09-28T06:52:00;100417.84;;;6.55;62.64
60089;BME280;45961;53.574;55.878;2022-09-28T06:53:22;100418.03;;;6.61;63.07
60089;BME280;45961;53.574;55.878;2022-09-28T06:54:31;100411.41;;;6.69;63.22
60089;BME280;45961;53.574;55.878;2022-09-28T06:55:51;100412.63;;;6.83;63.58
60089;BME280;45961;53.574;55.878;2022-09-28T06:56:52;100419.06;;;6.99;63.33
60089;BME280;45961;53.574;55.878;2022-09-28T06:57:57;100410.25;;;6.89;63.07
60089;BME280;45961;53.574;55.878;2022-09-28T06:58:59;100414.31;;;7.13;63.06
60089;BME280;45961;53.574;55.878;2022-09-28T07:00:00;100418.72;;;6.85;63.21
60089;BME280;45961;53.574;55.878;2022-09-28T07:01:21;100417.41;;;7.01;63.13
60089;BME280;45961;53.574;55.878;2022-09-28T07:02:35;100419.47;;;6.81;63.00
60089;BME280;45961;53.574;55.878;2022-09-28T07:03:56;100418.59;;;7.14;63.00
60089;BME280;45961;53.574;55.878;2022-09-28T07:05:23;100424.69;;;7.16;62.90
60089;BME280;45961;53.574;55.878;2022-09-28T07:06:47;100430.41;;;7.06;62.55
60089;BME280;45961;53.574;55.878;2022-09-28T07:08:07;100421.97;;;7.11;62.97
60089;BME280;45961;53.574;55.878;2022-09-28T07:09:27;100420.00;;;7.34;62.56
60089;BME280;45961;53.574;55.878;2022-09-28T07:10:52;100424.75;;;7.19;62.28